Time,TemperatureF,DewpointF,PressureIn,WindDirection,WindDirectionDegrees,WindSpeedMPH,WindSpeedGustMPH,Humidity,HourlyPrecipIn,Conditions,Clouds,dailyrainin,SoftwareType,DateUTC
2013-07-27 00:02:00,61.0,54.0,30.15,NNE,33,0.0,0.0,79,0.00,,,0.22,,2013-07-27 05:02:00,
2013-07-27 00:12:00,61.0,55.0,30.15,NE,34,0.0,1.0,80,0.00,,,0.22,,2013-07-27 05:12:00,
2013-07-27 00:22:00,60.0,54.0,30.15,NNE,13,1.0,3.0,81,0.00,,,0.22,,2013-07-27 05:22:00,
2013-07-27 00:32:00,60.0,54.0,30.15,ENE,68,0.0,1.0,82,0.00,,,0.22,,2013-07-27 05:32:00,
2013-07-27 00:43:00,60.0,54.0,30.15,NE,54,0.0,3.0,82,0.00,,,0.22,,2013-07-27 05:43:00,
2013-07-27 00:52:00,59.0,54.0,30.15,NE,55,0.0,3.0,82,0.00,,,0.22,,2013-07-27 05:52:00,
2013-07-27 01:02:00,59.0,54.0,30.15,NE,43,0.0,2.0,82,0.00,,,0.22,,2013-07-27 06:02:00,
2013-07-27 01:12:00,59.0,54.0,30.15,NE,43,0.0,1.0,83,0.00,,,0.22,,2013-07-27 06:12:00,
2013-07-27 01:22:00,59.0,54.0,30.15,NNE,31,0.0,1.0,84,0.00,,,0.21,,2013-07-27 06:22:00,
2013-07-27 01:33:00,58.0,53.0,30.15,NNE,31,0.0,0.0,84,0.00,,,0.21,,2013-07-27 06:33:00,
2013-07-27 01:43:00,57.0,53.0,30.15,NNE,31,0.0,0.0,85,0.00,,,0.21,,2013-07-27 06:43:00,
2013-07-27 01:52:00,57.0,53.0,30.14,NNE,31,0.0,0.0,87,0.00,,,0.21,,2013-07-27 06:52:00,
2013-07-27 02:02:00,57.0,53.0,30.14,NNE,31,0.0,0.0,87,0.00,,,0.21,,2013-07-27 07:02:00,
2013-07-27 02:12:00,57.0,53.0,30.14,NNE,31,0.0,0.0,86,0.00,,,0.21,,2013-07-27 07:12:00,
2013-07-27 02:22:00,56.0,52.0,30.14,NNE,31,0.0,0.0,88,0.00,,,0.00,,2013-07-27 07:22:00,
2013-07-27 02:33:00,56.0,53.0,30.14,NNE,31,0.0,0.0,90,0.00,,,0.00,,2013-07-27 07:33:00,
2013-07-27 02:43:00,56.0,53.0,30.14,NNE,31,0.0,0.0,89,0.00,,,0.00,,2013-07-27 07:43:00,
2013-07-27 02:52:00,56.0,52.0,30.14,NNE,31,0.0,0.0,87,0.00,,,0.00,,2013-07-27 07:52:00,
2013-07-27 03:02:00,55.0,52.0,30.14,NNE,31,0.0,0.0,89,0.00,,,0.00,,2013-07-27 08:02:00,
2013-07-27 03:12:00,54.0,52.0,30.14,NNE,31,0.0,0.0,92,0.00,,,0.00,,2013-07-27 08:12:00,
2013-07-27 03:22:00,54.0,51.0,30.14,NNE,31,0.0,0.0,91,0.00,,,0.00,,2013-07-27 08:22:00,
2013-07-27 03:32:00,53.0,50.0,30.14,NNE,31,0.0,0.0,91,0.00,,,0.00,,2013-07-27 08:32:00,
2013-07-27 03:43:00,53.0,51.0,30.13,NNE,31,0.0,0.0,93,0.00,,,0.00,,2013-07-27 08:43:00,
2013-07-27 03:53:00,52.0,50.0,30.14,NNE,31,0.0,0.0,93,0.00,,,0.00,,2013-07-27 08:53:00,
2013-07-27 04:02:00,52.0,50.0,30.13,NNE,31,0.0,0.0,94,0.00,,,0.00,,2013-07-27 09:02:00,
2013-07-27 04:12:00,52.0,50.0,30.13,NNE,31,0.0,0.0,94,0.00,,,0.00,,2013-07-27 09:12:00,
2013-07-27 04:22:00,52.0,51.0,30.12,NNE,31,0.0,0.0,95,0.00,,,0.00,,2013-07-27 09:22:00,
2013-07-27 04:33:00,52.0,50.0,30.12,NNE,31,0.0,0.0,94,0.00,,,0.00,,2013-07-27 09:33:00,
2013-07-27 04:44:00,51.0,49.0,30.12,NNE,31,0.0,0.0,94,0.00,,,0.00,,2013-07-27 09:44:00,
2013-07-27 04:52:00,51.0,50.0,30.12,NNE,31,0.0,0.0,95,0.00,,,0.00,,2013-07-27 09:52:00,
2013-07-27 05:02:00,52.0,51.0,30.12,NNE,31,0.0,0.0,96,0.00,,,0.00,,2013-07-27 10:02:00,
2013-07-27 05:22:00,53.0,52.0,30.13,WNW,297,0.0,2.0,96,0.00,,,0.00,,2013-07-27 10:22:00,
2013-07-27 05:32:00,54.0,53.0,30.14,WNW,297,0.0,0.0,96,0.00,,,0.00,,2013-07-27 10:32:00,
2013-07-27 05:43:00,54.0,53.0,30.13,WNW,297,0.0,0.0,96,0.00,,,0.00,,2013-07-27 10:43:00,
2013-07-27 05:52:00,54.0,53.0,30.16,West,273,3.0,4.0,96,0.00,,,0.00,,2013-07-27 10:52:00,
2013-07-27 06:02:00,55.0,54.0,30.16,West,275,2.0,3.0,97,0.00,,,0.00,,2013-07-27 11:02:00,
2013-07-27 06:12:00,55.0,54.0,30.18,NW,309,3.0,5.0,96,0.00,,,0.00,,2013-07-27 11:12:00,
2013-07-27 06:22:00,56.0,55.0,30.17,WNW,295,1.0,4.0,95,0.01,,,0.01,,2013-07-27 11:22:00,
2013-07-27 06:32:00,56.0,55.0,30.16,West,271,0.0,3.0,95,0.01,,,0.01,,2013-07-27 11:32:00,
2013-07-27 06:43:00,56.0,55.0,30.16,West,271,0.0,1.0,95,0.01,,,0.01,,2013-07-27 11:43:00,
2013-07-27 06:52:00,56.0,55.0,30.16,WSW,252,0.0,3.0,95,0.01,,,0.01,,2013-07-27 11:52:00,
2013-07-27 07:02:00,57.0,56.0,30.17,WSW,253,0.0,0.0,95,0.01,,,0.01,,2013-07-27 12:02:00,
2013-07-27 07:12:00,57.0,56.0,30.16,WSW,253,0.0,0.0,95,0.01,,,0.01,,2013-07-27 12:12:00,
2013-07-27 07:22:00,57.0,56.0,30.16,WSW,253,0.0,0.0,95,0.01,,,0.01,,2013-07-27 12:22:00,
2013-07-27 07:33:00,57.0,56.0,30.16,West,259,0.0,2.0,95,0.00,,,0.01,,2013-07-27 12:33:00,
2013-07-27 07:43:00,57.0,56.0,30.18,NW,304,1.0,3.0,95,0.00,,,0.01,,2013-07-27 12:43:00,
2013-07-27 07:52:00,57.0,56.0,30.19,WNW,297,2.0,4.0,95,0.00,,,0.01,,2013-07-27 12:52:00,
2013-07-27 08:02:00,57.0,56.0,30.20,WNW,302,2.0,4.0,95,0.01,,,0.02,,2013-07-27 13:02:00,
2013-07-27 08:12:00,57.0,56.0,30.19,WNW,302,0.0,4.0,95,0.01,,,0.02,,2013-07-27 13:12:00,
2013-07-27 08:22:00,57.0,56.0,30.17,NW,323,0.0,1.0,95,0.02,,,0.03,,2013-07-27 13:22:00,
2013-07-27 08:32:00,58.0,57.0,30.17,NW,323,0.0,2.0,95,0.02,,,0.03,,2013-07-27 13:32:00,
2013-07-27 08:44:00,58.0,57.0,30.18,WNW,291,1.0,3.0,95,0.02,,,0.03,,2013-07-27 13:44:00,
2013-07-27 08:53:00,58.0,57.0,30.18,WNW,293,0.0,2.0,95,0.02,,,0.03,,2013-07-27 13:53:00,
2013-07-27 09:02:00,59.0,58.0,30.18,WNW,298,1.0,2.0,95,0.01,,,0.03,,2013-07-27 14:02:00,
2013-07-27 09:12:00,59.0,57.0,30.17,WNW,296,0.0,3.0,94,0.01,,,0.03,,2013-07-27 14:12:00,
2013-07-27 09:22:00,59.0,58.0,30.16,WNW,296,0.0,0.0,95,0.00,,,0.03,,2013-07-27 14:22:00,
2013-07-27 09:32:00,59.0,58.0,30.16,WNW,296,0.0,1.0,95,0.01,,,0.04,,2013-07-27 14:32:00,
2013-07-27 09:44:00,59.0,58.0,30.15,North,5,0.0,0.0,95,0.01,,,0.04,,2013-07-27 14:44:00,
2013-07-27 09:54:00,60.0,59.0,30.16,North,5,0.0,0.0,95,0.01,,,0.04,,2013-07-27 14:54:00,
2013-07-27 10:02:00,60.0,58.0,30.20,WNW,296,4.0,7.0,94,0.01,,,0.04,,2013-07-27 15:02:00,
2013-07-27 10:12:00,59.0,57.0,30.17,NW,313,0.0,5.0,94,0.02,,,0.05,,2013-07-27 15:12:00,
2013-07-27 10:22:00,60.0,59.0,30.15,SE,126,1.0,3.0,95,0.04,,,0.07,,2013-07-27 15:22:00,
2013-07-27 10:33:00,60.0,59.0,30.16,SE,126,0.0,0.0,95,0.03,,,0.07,,2013-07-27 15:33:00,
2013-07-27 10:44:00,60.0,58.0,30.15,SW,231,1.0,2.0,94,0.03,,,0.07,,2013-07-27 15:44:00,
2013-07-27 10:53:00,61.0,59.0,30.16,West,273,1.0,3.0,93,0.03,,,0.07,,2013-07-27 15:53:00,
2013-07-27 11:02:00,61.0,59.0,30.15,West,262,1.0,3.0,92,0.03,,,0.07,,2013-07-27 16:02:00,
2013-07-27 11:12:00,61.0,58.0,30.15,NW,312,0.0,2.0,89,0.02,,,0.07,,2013-07-27 16:12:00,
2013-07-27 11:22:00,61.0,58.0,30.15,NW,319,0.0,2.0,91,0.00,,,0.07,,2013-07-27 16:22:00,
2013-07-27 11:33:00,62.0,59.0,30.15,NW,319,0.0,1.0,90,0.00,,,0.07,,2013-07-27 16:33:00,
2013-07-27 11:43:00,62.0,59.0,30.15,NW,318,0.0,3.0,89,0.00,,,0.07,,2013-07-27 16:43:00,
2013-07-27 11:53:00,62.0,59.0,30.16,NW,316,1.0,3.0,89,0.01,,,0.08,,2013-07-27 16:53:00,
2013-07-27 12:02:00,62.0,59.0,30.16,WNW,302,0.0,5.0,90,0.01,,,0.08,,2013-07-27 17:02:00,
2013-07-27 12:12:00,62.0,59.0,30.15,WNW,296,0.0,6.0,90,0.01,,,0.08,,2013-07-27 17:12:00,
2013-07-27 12:22:00,62.0,59.0,30.15,West,277,1.0,4.0,90,0.01,,,0.08,,2013-07-27 17:22:00,
2013-07-27 12:32:00,63.0,59.0,30.15,West,266,2.0,6.0,88,0.01,,,0.08,,2013-07-27 17:32:00,
2013-07-27 12:43:00,63.0,59.0,30.14,West,275,1.0,4.0,88,0.01,,,0.08,,2013-07-27 17:43:00,
2013-07-27 12:53:00,63.0,59.0,30.16,WNW,292,6.0,9.0,87,0.00,,,0.08,,2013-07-27 17:53:00,
2013-07-27 13:02:00,63.0,59.0,30.15,West,270,3.0,8.0,88,0.00,,,0.08,,2013-07-27 18:02:00,
2013-07-27 13:22:00,63.0,60.0,30.15,WNW,285,3.0,6.0,91,0.01,,,0.09,,2013-07-27 18:22:00,
2013-07-27 13:32:00,63.0,61.0,30.14,WNW,282,2.0,6.0,92,0.01,,,0.09,,2013-07-27 18:32:00,
2013-07-27 13:42:00,63.0,60.0,30.14,West,269,2.0,5.0,91,0.01,,,0.09,,2013-07-27 18:42:00,
2013-07-27 13:52:00,63.0,60.0,30.14,West,261,4.0,7.0,91,0.01,,,0.09,,2013-07-27 18:52:00,
2013-07-27 14:02:00,63.0,60.0,30.14,West,281,2.0,7.0,91,0.01,,,0.09,,2013-07-27 19:02:00,
2013-07-27 14:12:00,63.0,60.0,30.13,West,263,4.0,7.0,90,0.00,,,0.09,,2013-07-27 19:12:00,
2013-07-27 14:22:00,63.0,60.0,30.13,West,260,3.0,9.0,89,0.00,,,0.09,,2013-07-27 19:22:00,
2013-07-27 14:32:00,63.0,60.0,30.13,West,271,6.0,9.0,89,0.00,,,0.09,,2013-07-27 19:32:00,
2013-07-27 14:43:00,63.0,60.0,30.13,WSW,246,3.0,8.0,90,0.00,,,0.09,,2013-07-27 19:43:00,
2013-07-27 14:52:00,63.0,59.0,30.11,WSW,256,4.0,7.0,88,0.00,,,0.09,,2013-07-27 19:52:00,
2013-07-27 15:02:00,64.0,60.0,30.11,West,267,3.0,6.0,88,0.00,,,0.09,,2013-07-27 20:02:00,
2013-07-27 15:12:00,64.0,60.0,30.11,West,265,4.0,7.0,86,0.00,,,0.09,,2013-07-27 20:12:00,
2013-07-27 15:22:00,64.0,60.0,30.11,West,268,4.0,6.0,87,0.00,,,0.09,,2013-07-27 20:22:00,
2013-07-27 15:32:00,64.0,60.0,30.11,WNW,292,5.0,7.0,86,0.00,,,0.09,,2013-07-27 20:32:00,
2013-07-27 15:42:00,64.0,59.0,30.10,West,279,5.0,6.0,85,0.00,,,0.09,,2013-07-27 20:42:00,
2013-07-27 15:52:00,64.0,59.0,30.10,West,262,4.0,7.0,84,0.00,,,0.09,,2013-07-27 20:52:00,
2013-07-27 16:02:00,65.0,60.0,30.09,WSW,257,2.0,6.0,84,0.00,,,0.09,,2013-07-27 21:02:00,
2013-07-27 16:12:00,65.0,60.0,30.10,WNW,290,4.0,7.0,83,0.00,,,0.09,,2013-07-27 21:12:00,
2013-07-27 16:22:00,65.0,60.0,30.09,WNW,285,4.0,7.0,83,0.00,,,0.09,,2013-07-27 21:22:00,
2013-07-27 16:33:00,66.0,61.0,30.08,WSW,257,3.0,6.0,84,0.00,,,0.09,,2013-07-27 21:33:00,
2013-07-27 16:42:00,66.0,61.0,30.08,West,280,4.0,7.0,83,0.00,,,0.09,,2013-07-27 21:42:00,
2013-07-27 16:52:00,67.0,61.0,30.09,SW,236,6.0,10.0,81,0.00,,,0.09,,2013-07-27 21:52:00,
2013-07-27 17:02:00,68.0,60.0,30.08,WSW,257,6.0,8.0,76,0.00,,,0.09,,2013-07-27 22:02:00,
2013-07-27 17:12:00,67.0,59.0,30.09,West,263,5.0,8.0,76,0.00,,,0.09,,2013-07-27 22:12:00,
2013-07-27 17:22:00,67.0,59.0,30.08,West,261,4.0,8.0,76,0.00,,,0.09,,2013-07-27 22:22:00,
2013-07-27 17:32:00,68.0,60.0,30.07,WSW,238,5.0,8.0,76,0.00,,,0.09,,2013-07-27 22:32:00,
2013-07-27 17:43:00,68.0,60.0,30.07,WSW,241,5.0,10.0,75,0.00,,,0.09,,2013-07-27 22:43:00,
2013-07-27 17:53:00,68.0,59.0,30.06,WSW,248,4.0,7.0,73,0.00,,,0.09,,2013-07-27 22:53:00,
2013-07-27 18:02:00,69.0,59.0,30.06,West,268,5.0,8.0,71,0.00,,,0.09,,2013-07-27 23:02:00,
2013-07-27 18:12:00,69.0,60.0,30.06,West,260,5.0,8.0,73,0.00,,,0.09,,2013-07-27 23:12:00,
2013-07-27 18:22:00,67.0,59.0,30.06,West,259,6.0,10.0,75,0.00,,,0.09,,2013-07-27 23:22:00,
2013-07-27 18:32:00,68.0,59.0,30.06,WSW,246,5.0,8.0,73,0.00,,,0.09,,2013-07-27 23:32:00,
2013-07-27 18:44:00,67.0,58.0,30.06,SW,236,4.0,7.0,73,0.00,,,0.09,,2013-07-27 23:44:00,
2013-07-27 18:52:00,68.0,59.0,30.05,SW,221,3.0,7.0,73,0.00,,,0.09,,2013-07-27 23:52:00,
2013-07-27 19:02:00,68.0,57.0,30.05,WSW,244,5.0,7.0,68,0.00,,,0.09,,2013-07-28 00:02:00,
2013-07-27 19:12:00,69.0,58.0,30.05,West,275,5.0,9.0,68,0.00,,,0.09,,2013-07-28 00:12:00,
2013-07-27 19:22:00,69.0,58.0,30.05,West,263,5.0,7.0,67,0.00,,,0.09,,2013-07-28 00:22:00,
2013-07-27 19:32:00,68.0,57.0,30.05,WSW,258,6.0,10.0,68,0.00,,,0.09,,2013-07-28 00:32:00,
2013-07-27 19:53:00,67.0,58.0,30.05,West,274,5.0,6.0,72,0.00,,,0.09,,2013-07-28 00:53:00,
2013-07-27 20:02:00,67.0,57.0,30.05,WNW,284,4.0,8.0,71,0.00,,,0.09,,2013-07-28 01:02:00,
2013-07-27 20:12:00,67.0,58.0,30.06,West,269,4.0,6.0,72,0.00,,,0.09,,2013-07-28 01:12:00,
2013-07-27 20:22:00,66.0,57.0,30.05,West,261,3.0,6.0,73,0.00,,,0.09,,2013-07-28 01:22:00,
2013-07-27 20:32:00,65.0,57.0,30.05,West,268,0.0,6.0,76,0.00,,,0.09,,2013-07-28 01:32:00,
2013-07-27 20:43:00,64.0,57.0,30.04,West,271,2.0,3.0,78,0.00,,,0.09,,2013-07-28 01:43:00,
2013-07-27 22:32:00,57.0,56.0,30.06,West,262,0.0,0.0,95,0.00,,,0.09,,2013-07-28 03:32:00,
2013-07-27 23:12:00,56.0,55.0,30.07,West,262,0.0,0.0,96,0.00,,,0.09,,2013-07-28 04:12:00,
2013-07-27 23:22:00,56.0,55.0,30.07,West,262,0.0,0.0,96,0.00,,,0.09,,2013-07-28 04:22:00,
2013-07-27 23:32:00,56.0,55.0,30.07,West,261,0.0,0.0,96,0.00,,,0.09,,2013-07-28 04:32:00,
2013-07-27 23:43:00,57.0,56.0,30.07,West,261,0.0,0.0,96,0.00,,,0.09,,2013-07-28 04:43:00,
2013-07-27 23:53:00,57.0,56.0,30.07,West,262,0.0,0.0,96,0.00,,,0.09,,2013-07-28 04:53:00,